sensor_id;sensor_type;location;lat;lon;timestamp;pressure;altitude;pressure_sealevel;temperature;humidity
49297;BME280;35163;48.878;18.040;2023-05-22T00:02:05;98390.31;;;17.92;71.82
49297;BME280;35163;48.878;18.040;2023-05-22T00:04:32;98393.22;;;17.87;71.86
49297;BME280;35163;48.878;18.040;2023-05-22T00:06:59;98398.72;;;17.82;72.33
49297;BME280;35163;48.878;18.040;2023-05-22T00:09:26;98400.88;;;17.76;72.72
49297;BME280;35163;48.878;18.040;2023-05-22T00:11:52;98396.03;;;17.69;72.99
49297;BME280;35163;48.878;18.040;2023-05-22T00:14:19;98403.22;;;17.66;73.42
49297;BME280;35163;48.878;18.040;2023-05-22T00:16:46;98398.66;;;17.55;73.61
49297;BME280;35163;48.878;18.040;2023-05-22T00:19:13;98404.16;;;17.50;74.13
49297;BME280;35163;48.878;18.040;2023-05-22T00:21:44;98397.06;;;17.38;74.68
49297;BME280;35163;48.878;18.040;2023-05-22T00:24:12;98390.97;;;17.22;75.48
49297;BME280;35163;48.878;18.040;2023-05-22T00:26:38;98392.19;;;17.17;75.77
49297;BME280;35163;48.878;18.040;2023-05-22T00:29:05;98386.50;;;17.10;76.20
49297;BME280;35163;48.878;18.040;2023-05-22T00:31:32;98386.50;;;17.10;76.24
49297;BME280;35163;48.878;18.040;2023-05-22T00:33:58;98378.78;;;17.07;76.25
49297;BME280;35163;48.878;18.040;2023-05-22T00:36:25;98381.56;;;17.04;76.28
49297;BME280;35163;48.878;18.040;2023-05-22T00:38:52;98378.88;;;17.05;76.25
49297;BME280;35163;48.878;18.040;2023-05-22T00:41:19;98382.34;;;17.06;76.19
49297;BME280;35163;48.878;18.040;2023-05-22T00:43:47;98379.72;;;17.06;75.80
49297;BME280;35163;48.878;18.040;2023-05-22T00:46:16;98383.78;;;17.11;75.44
49297;BME280;35163;48.878;18.040;2023-05-22T00:48:47;98390.69;;;17.12;75.09
49297;BME280;35163;48.878;18.040;2023-05-22T00:51:14;98394.03;;;17.15;75.06
49297;BME280;35163;48.878;18.040;2023-05-22T00:53:41;98387.47;;;17.07;75.44
49297;BME280;35163;48.878;18.040;2023-05-22T00:56:08;98386.22;;;17.15;74.98
49297;BME280;35163;48.878;18.040;2023-05-22T00:58:35;98380.69;;;17.19;74.53
49297;BME280;35163;48.878;18.040;2023-05-22T01:01:03;98372.00;;;17.19;74.19
49297;BME280;35163;48.878;18.040;2023-05-22T01:03:42;98374.63;;;17.19;74.39
49297;BME280;35163;48.878;18.040;2023-05-22T01:06:14;98383.59;;;17.15;74.87
49297;BME280;35163;48.878;18.040;2023-05-22T01:08:43;98374.16;;;17.12;75.18
49297;BME280;35163;48.878;18.040;2023-05-22T01:11:17;98379.53;;;17.09;75.51
49297;BME280;35163;48.878;18.040;2023-05-22T01:14:05;98381.47;;;17.05;75.38
49297;BME280;35163;48.878;18.040;2023-05-22T01:16:55;98382.63;;;17.01;75.32
49297;BME280;35163;48.878;18.040;2023-05-22T01:33:02;98376.66;;;16.68;76.27
49297;BME280;35163;48.878;18.040;2023-05-22T01:35:31;98375.31;;;16.61;76.76
49297;BME280;35163;48.878;18.040;2023-05-22T01:37:59;98386.59;;;16.61;76.36
49297;BME280;35163;48.878;18.040;2023-05-22T01:40:26;98391.16;;;16.58;76.97
49297;BME280;35163;48.878;18.040;2023-05-22T01:42:53;98381.97;;;16.50;77.01
49297;BME280;35163;48.878;18.040;2023-05-22T01:45:20;98392.78;;;16.44;77.26
49297;BME280;35163;48.878;18.040;2023-05-22T01:47:47;98393.13;;;16.38;77.71
49297;BME280;35163;48.878;18.040;2023-05-22T01:50:14;98388.72;;;16.38;77.59
49297;BME280;35163;48.878;18.040;2023-05-22T01:53:27;98386.88;;;16.40;77.54
49297;BME280;35163;48.878;18.040;2023-05-22T01:56:16;98390.84;;;16.32;77.84
49297;BME280;35163;48.878;18.040;2023-05-22T01:58:52;98393.53;;;16.30;77.72
49297;BME280;35163;48.878;18.040;2023-05-22T02:01:26;98389.00;;;16.34;77.85
49297;BME280;35163;48.878;18.040;2023-05-22T02:03:56;98392.19;;;16.39;76.85
49297;BME280;35163;48.878;18.040;2023-05-22T02:06:28;98393.72;;;16.43;76.66
49297;BME280;35163;48.878;18.040;2023-05-22T02:08:55;98393.72;;;16.43;76.36
49297;BME280;35163;48.878;18.040;2023-05-22T02:11:23;98386.13;;;16.38;76.63
49297;BME280;35163;48.878;18.040;2023-05-22T02:13:52;98388.31;;;16.30;77.30
49297;BME280;35163;48.878;18.040;2023-05-22T02:16:21;98391.03;;;16.28;77.09
49297;BME280;35163;48.878;18.040;2023-05-22T02:18:48;98385.03;;;16.26;77.30
49297;BME280;35163;48.878;18.040;2023-05-22T02:21:16;98383.56;;;16.22;77.22
49297;BME280;35163;48.878;18.040;2023-05-22T02:23:43;98389.84;;;16.18;77.63
49297;BME280;35163;48.878;18.040;2023-05-22T02:26:10;98389.19;;;16.14;77.29
49297;BME280;35163;48.878;18.040;2023-05-22T02:28:36;98388.59;;;16.09;77.40
49297;BME280;35163;48.878;18.040;2023-05-22T02:31:03;98382.59;;;16.07;77.39
49297;BME280;35163;48.878;18.040;2023-05-22T02:33:30;98387.19;;;16.03;78.04
49297;BME280;35163;48.878;18.040;2023-05-22T02:35:56;98386.56;;;15.98;77.82
49297;BME280;35163;48.878;18.040;2023-05-22T02:38:23;98388.31;;;15.98;77.96
49297;BME280;35163;48.878;18.040;2023-05-22T02:40:50;98380.75;;;15.93;78.46
49297;BME280;35163;48.878;18.040;2023-05-22T02:43:16;98374.69;;;15.93;78.63
49297;BME280;35163;48.878;18.040;2023-05-22T02:45:43;98379.63;;;15.97;78.09
49297;BME280;35163;48.878;18.040;2023-05-22T02:48:10;98374.75;;;15.91;78.48
49297;BME280;35163;48.878;18.040;2023-05-22T02:50:37;98381.81;;;15.89;78.83
49297;BME280;35163;48.878;18.040;2023-05-22T02:53:03;98381.72;;;15.90;78.76
49297;BME280;35163;48.878;18.040;2023-05-22T02:55:30;98383.44;;;15.91;78.67
49297;BME280;35163;48.878;18.040;2023-05-22T02:57:57;98375.63;;;15.91;78.21
49297;BME280;35163;48.878;18.040;2023-05-22T03:00:23;98374.09;;;15.87;78.79
49297;BME280;35163;48.878;18.040;2023-05-22T03:02:50;98375.94;;;15.85;78.51
49297;BME280;35163;48.878;18.040;2023-05-22T03:05:17;98372.66;;;15.82;78.71
49297;BME280;35163;48.878;18.040;2023-05-22T03:07:44;98382.34;;;15.79;78.45
49297;BME280;35163;48.878;18.040;2023-05-22T03:10:14;98374.50;;;15.79;78.60
49297;BME280;35163;48.878;18.040;2023-05-22T03:12:40;98379.28;;;15.71;78.98
49297;BME280;35163;48.878;18.040;2023-05-22T03:15:08;98379.88;;;15.76;78.61
49297;BME280;35163;48.878;18.040;2023-05-22T03:17:34;98377.44;;;15.73;78.88
49297;BME280;35163;48.878;18.040;2023-05-22T03:20:01;98372.97;;;15.75;78.81
49297;BME280;35163;48.878;18.040;2023-05-22T03:22:29;98374.22;;;15.68;79.35
49297;BME280;35163;48.878;18.040;2023-05-22T03:24:56;98379.34;;;15.70;79.28
49297;BME280;35163;48.878;18.040;2023-05-22T03:27:22;98382.47;;;15.76;79.66
49297;BME280;35163;48.878;18.040;2023-05-22T03:29:52;98378.19;;;15.75;80.26
49297;BME280;35163;48.878;18.040;2023-05-22T03:32:18;98385.69;;;15.82;81.09
49297;BME280;35163;48.878;18.040;2023-05-22T03:34:45;98382.94;;;15.85;79.64
49297;BME280;35163;48.878;18.040;2023-05-22T03:37:12;98378.38;;;15.88;79.28
49297;BME280;35163;48.878;18.040;2023-05-22T03:39:38;98380.66;;;15.95;78.92
49297;BME280;35163;48.878;18.040;2023-05-22T03:42:05;98382.09;;;16.00;78.40
49297;BME280;35163;48.878;18.040;2023-05-22T03:44:32;98378.25;;;16.08;78.26
49297;BME280;35163;48.878;18.040;2023-05-22T03:46:58;98375.38;;;16.12;77.51
49297;BME280;35163;48.878;18.040;2023-05-22T03:49:27;98379.59;;;16.15;77.67
49297;BME280;35163;48.878;18.040;2023-05-22T03:51:53;98378.06;;;16.11;77.68
49297;BME280;35163;48.878;18.040;2023-05-22T03:54:20;98374.56;;;16.12;77.34
49297;BME280;35163;48.878;18.040;2023-05-22T03:56:48;98378.91;;;16.11;77.14
49297;BME280;35163;48.878;18.040;2023-05-22T03:59:15;98378.91;;;16.11;77.43
49297;BME280;35163;48.878;18.040;2023-05-22T04:01:42;98374.72;;;16.09;77.38
49297;BME280;35163;48.878;18.040;2023-05-22T04:04:09;98379.84;;;16.10;77.15
49297;BME280;35163;48.878;18.040;2023-05-22T04:06:37;98374.88;;;16.06;77.92
49297;BME280;35163;48.878;18.040;2023-05-22T04:09:11;98372.16;;;16.07;77.93
49297;BME280;35163;48.878;18.040;2023-05-22T04:11:38;98378.06;;;16.11;77.51
49297;BME280;35163;48.878;18.040;2023-05-22T04:14:05;98380.59;;;16.12;77.37
49297;BME280;35163;48.878;18.040;2023-05-22T04:16:32;98375.38;;;16.12;77.33
49297;BME280;35163;48.878;18.040;2023-05-22T04:18:59;98379.59;;;16.15;77.22
49297;BME280;35163;48.878;18.040;2023-05-22T04:21:30;98378.66;;;16.16;76.63
49297;BME280;35163;48.878;18.040;2023-05-22T04:24:02;98378.56;;;16.18;75.67
49297;BME280;35163;48.878;18.040;2023-05-22T04:26:32;98385.22;;;16.23;75.94
49297;BME280;35163;48.878;18.040;2023-05-22T04:28:59;98377.97;;;16.28;75.86
49297;BME280;35163;48.878;18.040;2023-05-22T04:31:27;98386.56;;;16.31;76.19
49297;BME280;35163;48.878;18.040;2023-05-22T04:33:53;98376.13;;;16.31;76.28
49297;BME280;35163;48.878;18.040;2023-05-22T04:36:21;98374.28;;;16.33;76.35
49297;BME280;35163;48.878;18.040;2023-05-22T04:38:52;98390.53;;;16.38;76.43
49297;BME280;35163;48.878;18.040;2023-05-22T04:41:20;98378.47;;;16.35;76.46
49297;BME280;35163;48.878;18.040;2023-05-22T04:43:52;98386.03;;;16.40;75.84
49297;BME280;35163;48.878;18.040;2023-05-22T04:46:19;98385.31;;;16.38;76.13
49297;BME280;35163;48.878;18.040;2023-05-22T04:48:46;98384.94;;;16.44;75.83
49297;BME280;35163;48.878;18.040;2023-05-22T04:51:13;98383.19;;;16.45;75.71
49297;BME280;35163;48.878;18.040;2023-05-22T04:53:40;98383.69;;;16.51;76.19
49297;BME280;35163;48.878;18.040;2023-05-22T04:56:06;98381.47;;;16.60;76.18
49297;BME280;35163;48.878;18.040;2023-05-22T04:58:33;98384.09;;;16.60;76.03
49297;BME280;35163;48.878;18.040;2023-05-22T05:01:00;98378.50;;;16.66;75.46
49297;BME280;35163;48.878;18.040;2023-05-22T05:03:26;98380.84;;;16.71;75.27
49297;BME280;35163;48.878;18.040;2023-05-22T05:05:54;98377.91;;;16.77;75.39
49297;BME280;35163;48.878;18.040;2023-05-22T05:08:22;98378.19;;;16.87;74.83
49297;BME280;35163;48.878;18.040;2023-05-22T05:10:48;98378.41;;;16.98;74.81
49297;BME280;35163;48.878;18.040;2023-05-22T05:13:15;98391.84;;;17.07;74.60
49297;BME280;35163;48.878;18.040;2023-05-22T05:15:41;98388.16;;;17.11;73.93
49297;BME280;35163;48.878;18.040;2023-05-22T05:18:08;98391.34;;;17.16;73.65
49297;BME280;35163;48.878;18.040;2023-05-22T05:20:35;98380.81;;;17.18;73.71
49297;BME280;35163;48.878;18.040;2023-05-22T05:23:02;98374.28;;;17.25;74.07
49297;BME280;35163;48.878;18.040;2023-05-22T05:25:29;98383.81;;;17.41;73.92
49297;BME280;35163;48.878;18.040;2023-05-22T05:27:56;98384.16;;;17.64;72.75
49297;BME280;35163;48.878;18.040;2023-05-22T05:30:23;98390.00;;;17.96;71.98
49297;BME280;35163;48.878;18.040;2023-05-22T05:32:55;98391.69;;;18.27;70.43
49297;BME280;35163;48.878;18.040;2023-05-22T05:35:22;98392.44;;;18.69;69.04
49297;BME280;35163;48.878;18.040;2023-05-22T05:37:48;98392.31;;;19.12;67.85
49297;BME280;35163;48.878;18.040;2023-05-22T05:40:15;98387.47;;;19.58;66.36
49297;BME280;35163;48.878;18.040;2023-05-22T05:42:44;98384.81;;;19.97;63.29
49297;BME280;35163;48.878;18.040;2023-05-22T05:45:12;98390.72;;;20.25;60.97
49297;BME280;35163;48.878;18.040;2023-05-22T05:47:44;98380.84;;;20.53;60.90
49297;BME280;35163;48.878;18.040;2023-05-22T05:50:11;98385.94;;;20.79;60.25
49297;BME280;35163;48.878;18.040;2023-05-22T05:52:43;98382.56;;;21.02;59.34
49297;BME280;35163;48.878;18.040;2023-05-22T05:55:10;98382.22;;;21.18;58.47
49297;BME280;35163;48.878;18.040;2023-05-22T05:57:39;98378.66;;;21.30;58.59
49297;BME280;35163;48.878;18.040;2023-05-22T06:00:06;98380.13;;;21.46;58.93
49297;BME280;35163;48.878;18.040;2023-05-22T06:02:36;98381.44;;;21.63;58.05
49297;BME280;35163;48.878;18.040;2023-05-22T06:05:04;98381.06;;;21.79;56.81
49297;BME280;35163;48.878;18.040;2023-05-22T06:07:31;98377.22;;;21.95;56.22
49297;BME280;35163;48.878;18.040;2023-05-22T06:09:57;98370.00;;;22.08;55.28
49297;BME280;35163;48.878;18.040;2023-05-22T06:12:24;98370.56;;;22.24;54.92
49297;BME280;35163;48.878;18.040;2023-05-22T06:14:51;98370.88;;;22.42;53.39
49297;BME280;35163;48.878;18.040;2023-05-22T06:17:18;98370.56;;;22.56;52.70
49297;BME280;35163;48.878;18.040;2023-05-22T06:19:44;98369.34;;;22.72;51.26
49297;BME280;35163;48.878;18.040;2023-05-22T06:24:38;98375.56;;;23.14;50.08
49297;BME280;35163;48.878;18.040;2023-05-22T06:27:05;98363.19;;;23.36;49.88
49297;BME280;35163;48.878;18.040;2023-05-22T06:29:31;98369.53;;;23.54;49.50
49297;BME280;35163;48.878;18.040;2023-05-22T06:31:58;98371.69;;;23.71;46.90
49297;BME280;35163;48.878;18.040;2023-05-22T06:34:25;98369.78;;;23.83;47.67
49297;BME280;35163;48.878;18.040;2023-05-22T06:36:53;98363.53;;;23.94;44.40
49297;BME280;35163;48.878;18.040;2023-05-22T06:39:20;98365.50;;;24.01;44.63
49297;BME280;35163;48.878;18.040;2023-05-22T06:41:46;98364.03;;;24.19;44.75
49297;BME280;35163;48.878;18.040;2023-05-22T06:44:13;98366.41;;;24.32;45.63
49297;BME280;35163;48.878;18.040;2023-05-22T06:46:40;98369.22;;;24.50;46.07
49297;BME280;35163;48.878;18.040;2023-05-22T06:49:06;98369.88;;;24.52;41.66
49297;BME280;35163;48.878;18.040;2023-05-22T06:51:33;98364.03;;;24.68;43.40
49297;BME280;35163;48.878;18.040;2023-05-22T06:54:00;98364.28;;;24.85;44.29
49297;BME280;35163;48.878;18.040;2023-05-22T06:56:28;98372.22;;;25.05;44.45
49297;BME280;35163;48.878;18.040;2023-05-22T06:58:55;98354.53;;;25.15;43.74
49297;BME280;35163;48.878;18.040;2023-05-22T07:01:22;98358.06;;;25.34;44.43
49297;BME280;35163;48.878;18.040;2023-05-22T07:03:48;98364.31;;;25.43;43.67
49297;BME280;35163;48.878;18.040;2023-05-22T07:06:15;98352.38;;;25.57;41.93
49297;BME280;35163;48.878;18.040;2023-05-22T07:08:43;98362.94;;;25.77;42.90
49297;BME280;35163;48.878;18.040;2023-05-22T07:11:10;98355.31;;;25.92;41.93
49297;BME280;35163;48.878;18.040;2023-05-22T07:13:37;98356.16;;;26.11;41.27
49297;BME280;35163;48.878;18.040;2023-05-22T07:16:03;98354.44;;;26.19;40.54
49297;BME280;35163;48.878;18.040;2023-05-22T07:18:30;98353.91;;;26.34;40.42
49297;BME280;35163;48.878;18.040;2023-05-22T07:20:57;98352.25;;;26.51;41.29
49297;BME280;35163;48.878;18.040;2023-05-22T07:23:24;98354.19;;;26.67;41.11
49297;BME280;35163;48.878;18.040;2023-05-22T07:25:51;98350.69;;;26.85;41.33
49297;BME280;35163;48.878;18.040;2023-05-22T07:28:18;98352.19;;;27.06;41.27
49297;BME280;35163;48.878;18.040;2023-05-22T07:30:45;98350.22;;;27.16;38.66
49297;BME280;35163;48.878;18.040;2023-05-22T07:33:12;98350.28;;;27.25;39.28
49297;BME280;35163;48.878;18.040;2023-05-22T07:35:39;98342.09;;;27.45;39.52
49297;BME280;35163;48.878;18.040;2023-05-22T07:38:06;98350.44;;;27.58;39.88
49297;BME280;35163;48.878;18.040;2023-05-22T07:40:33;98349.03;;;27.72;39.36
49297;BME280;35163;48.878;18.040;2023-05-22T07:42:59;98350.56;;;27.83;39.91
49297;BME280;35163;48.878;18.040;2023-05-22T07:45:26;98345.09;;;27.85;37.29
49297;BME280;35163;48.878;18.040;2023-05-22T07:47:53;98343.28;;;27.94;37.50
49297;BME280;35163;48.878;18.040;2023-05-22T07:50:21;98352.06;;;28.02;39.59
49297;BME280;35163;48.878;18.040;2023-05-22T07:52:48;98345.78;;;28.12;39.44
49297;BME280;35163;48.878;18.040;2023-05-22T07:55:15;98343.63;;;28.16;36.42
49297;BME280;35163;48.878;18.040;2023-05-22T07:57:41;98346.47;;;28.22;38.65
49297;BME280;35163;48.878;18.040;2023-05-22T08:00:09;98343.31;;;28.27;38.17
49297;BME280;35163;48.878;18.040;2023-05-22T08:02:41;98336.84;;;28.30;36.46
49297;BME280;35163;48.878;18.040;2023-05-22T08:05:08;98335.69;;;28.24;34.56
49297;BME280;35163;48.878;18.040;2023-05-22T08:07:35;98337.66;;;28.30;35.20
49297;BME280;35163;48.878;18.040;2023-05-22T08:10:06;98343.50;;;28.34;35.94
49297;BME280;35163;48.878;18.040;2023-05-22T08:12:33;98336.34;;;28.26;34.50
49297;BME280;35163;48.878;18.040;2023-05-22T08:15:00;98335.16;;;28.29;34.86
49297;BME280;35163;48.878;18.040;2023-05-22T08:17:27;98345.19;;;28.35;36.81
49297;BME280;35163;48.878;18.040;2023-05-22T08:19:54;98338.38;;;28.41;38.43
49297;BME280;35163;48.878;18.040;2023-05-22T08:22:20;98348.34;;;28.47;38.93
49297;BME280;35163;48.878;18.040;2023-05-22T08:24:47;98354.31;;;28.49;35.96
49297;BME280;35163;48.878;18.040;2023-05-22T08:27:14;98345.03;;;28.45;34.93
49297;BME280;35163;48.878;18.040;2023-05-22T08:29:46;98341.34;;;28.46;35.75
49297;BME280;35163;48.878;18.040;2023-05-22T08:32:13;98344.34;;;28.43;37.10
49297;BME280;35163;48.878;18.040;2023-05-22T08:34:42;98347.00;;;28.43;37.16
49297;BME280;35163;48.878;18.040;2023-05-22T08:37:11;98344.34;;;28.34;34.47
49297;BME280;35163;48.878;18.040;2023-05-22T08:39:39;98336.50;;;28.33;34.97
49297;BME280;35163;48.878;18.040;2023-05-22T08:42:07;98339.88;;;28.35;35.61
49297;BME280;35163;48.878;18.040;2023-05-22T08:44:33;98330.91;;;28.36;35.47
49297;BME280;35163;48.878;18.040;2023-05-22T08:47:00;98329.84;;;28.29;35.70
49297;BME280;35163;48.878;18.040;2023-05-22T08:49:30;98330.69;;;28.21;34.65
49297;BME280;35163;48.878;18.040;2023-05-22T08:52:03;98326.06;;;28.23;35.71
49297;BME280;35163;48.878;18.040;2023-05-22T08:54:32;98325.53;;;28.19;35.94
49297;BME280;35163;48.878;18.040;2023-05-22T08:57:02;98325.03;;;28.16;35.84
49297;BME280;35163;48.878;18.040;2023-05-22T08:59:30;98323.88;;;28.18;36.30
49297;BME280;35163;48.878;18.040;2023-05-22T09:01:59;98326.03;;;28.14;35.42
49297;BME280;35163;48.878;18.040;2023-05-22T09:04:25;98321.22;;;28.10;34.65
49297;BME280;35163;48.878;18.040;2023-05-22T09:06:54;98324.88;;;28.09;34.22
49297;BME280;35163;48.878;18.040;2023-05-22T09:09:20;98319.56;;;28.09;34.77
49297;BME280;35163;48.878;18.040;2023-05-22T09:11:48;98320.69;;;28.06;33.64
49297;BME280;35163;48.878;18.040;2023-05-22T09:14:15;98310.91;;;28.07;34.63
49297;BME280;35163;48.878;18.040;2023-05-22T09:16:44;98324.03;;;28.08;35.51
49297;BME280;35163;48.878;18.040;2023-05-22T09:19:13;98321.38;;;28.17;35.16
49297;BME280;35163;48.878;18.040;2023-05-22T09:21:40;98319.56;;;28.17;32.85
49297;BME280;35163;48.878;18.040;2023-05-22T09:24:09;98313.25;;;28.18;32.38
49297;BME280;35163;48.878;18.040;2023-05-22T09:26:39;98302.09;;;28.14;31.70
49297;BME280;35163;48.878;18.040;2023-05-22T09:29:05;98311.41;;;28.19;32.50
49297;BME280;35163;48.878;18.040;2023-05-22T09:31:53;98307.44;;;28.23;33.13
49297;BME280;35163;48.878;18.040;2023-05-22T09:34:20;98304.13;;;28.21;33.12
49297;BME280;35163;48.878;18.040;2023-05-22T09:36:47;98304.28;;;28.19;32.42
49297;BME280;35163;48.878;18.040;2023-05-22T09:39:16;98311.09;;;28.22;33.34
49297;BME280;35163;48.878;18.040;2023-05-22T09:41:43;98303.28;;;28.20;33.03
49297;BME280;35163;48.878;18.040;2023-05-22T09:44:15;98302.59;;;28.18;33.40
49297;BME280;35163;48.878;18.040;2023-05-22T09:46:45;98300.13;;;28.17;33.89
49297;BME280;35163;48.878;18.040;2023-05-22T09:49:13;98300.44;;;28.13;34.62
49297;BME280;35163;48.878;18.040;2023-05-22T09:51:43;98297.13;;;28.11;34.32
49297;BME280;35163;48.878;18.040;2023-05-22T09:54:14;98296.28;;;28.11;34.70
49297;BME280;35163;48.878;18.040;2023-05-22T09:56:43;98294.63;;;28.10;34.85
49297;BME280;35163;48.878;18.040;2023-05-22T09:59:11;98290.16;;;28.10;36.11
49297;BME280;35163;48.878;18.040;2023-05-22T10:01:39;98287.00;;;28.15;35.55
49297;BME280;35163;48.878;18.040;2023-05-22T10:04:11;98289.16;;;28.11;35.58
49297;BME280;35163;48.878;18.040;2023-05-22T10:06:41;98284.19;;;28.17;36.91
49297;BME280;35163;48.878;18.040;2023-05-22T10:09:14;98285.34;;;28.14;34.94
49297;BME280;35163;48.878;18.040;2023-05-22T10:11:45;98275.88;;;28.11;35.38
49297;BME280;35163;48.878;18.040;2023-05-22T10:14:14;98280.22;;;28.12;35.22
49297;BME280;35163;48.878;18.040;2023-05-22T10:16:44;98279.19;;;28.13;36.12
49297;BME280;35163;48.878;18.040;2023-05-22T10:19:12;98270.56;;;28.11;35.56
49297;BME280;35163;48.878;18.040;2023-05-22T10:21:40;98274.06;;;28.12;35.42
49297;BME280;35163;48.878;18.040;2023-05-22T10:24:08;98272.88;;;28.14;36.30
49297;BME280;35163;48.878;18.040;2023-05-22T10:26:36;98271.22;;;28.13;36.19
49297;BME280;35163;48.878;18.040;2023-05-22T10:29:15;98270.56;;;28.11;35.52
49297;BME280;35163;48.878;18.040;2023-05-22T10:32:11;98265.25;;;28.11;34.59
49297;BME280;35163;48.878;18.040;2023-05-22T10:35:36;98271.22;;;28.13;36.90
49297;BME280;35163;48.878;18.040;2023-05-22T10:40:11;98269.25;;;28.07;35.88
49297;BME280;35163;48.878;18.040;2023-05-22T10:42:38;98261.28;;;28.07;35.11
49297;BME280;35163;48.878;18.040;2023-05-22T10:45:06;98262.09;;;28.08;36.31
49297;BME280;35163;48.878;18.040;2023-05-22T10:47:33;98258.63;;;28.07;37.82
49297;BME280;35163;48.878;18.040;2023-05-22T10:50:08;98253.31;;;28.07;36.91
49297;BME280;35163;48.878;18.040;2023-05-22T10:52:37;98251.28;;;28.09;36.91
49297;BME280;35163;48.878;18.040;2023-05-22T10:55:06;98251.28;;;28.09;37.39
49297;BME280;35163;48.878;18.040;2023-05-22T10:57:36;98254.28;;;28.06;37.46
49297;BME280;35163;48.878;18.040;2023-05-22T11:00:09;98245.63;;;28.04;37.15
49297;BME280;35163;48.878;18.040;2023-05-22T11:02:44;98243.31;;;28.01;35.85
49297;BME280;35163;48.878;18.040;2023-05-22T11:07:47;98238.34;;;27.98;37.75
49297;BME280;35163;48.878;18.040;2023-05-22T11:10:13;98237.84;;;27.94;36.45
49297;BME280;35163;48.878;18.040;2023-05-22T11:13:01;98233.38;;;27.86;34.57
49297;BME280;35163;48.878;18.040;2023-05-22T11:15:29;98239.31;;;27.80;35.53
49297;BME280;35163;48.878;18.040;2023-05-22T11:18:01;98231.69;;;27.77;36.51
49297;BME280;35163;48.878;18.040;2023-05-22T11:20:35;98228.34;;;27.75;36.30
49297;BME280;35163;48.878;18.040;2023-05-22T11:23:06;98228.34;;;27.75;36.91
49297;BME280;35163;48.878;18.040;2023-05-22T11:25:37;98219.75;;;27.73;37.53
49297;BME280;35163;48.878;18.040;2023-05-22T11:28:06;98218.75;;;27.74;38.76
49297;BME280;35163;48.878;18.040;2023-05-22T11:30:33;98223.03;;;27.75;37.07
49297;BME280;35163;48.878;18.040;2023-05-22T11:33:00;98213.25;;;27.75;37.21
49297;BME280;35163;48.878;18.040;2023-05-22T11:35:28;98214.59;;;27.80;37.59
49297;BME280;35163;48.878;18.040;2023-05-22T11:37:55;98208.78;;;27.84;37.81
49297;BME280;35163;48.878;18.040;2023-05-22T11:40:23;98212.28;;;27.85;37.47
49297;BME280;35163;48.878;18.040;2023-05-22T11:42:51;98197.81;;;27.79;36.32
49297;BME280;35163;48.878;18.040;2023-05-22T11:45:22;98195.00;;;27.81;36.15
49297;BME280;35163;48.878;18.040;2023-05-22T11:47:49;98193.88;;;27.83;36.87
49297;BME280;35163;48.878;18.040;2023-05-22T11:50:16;98186.88;;;27.82;36.54
49297;BME280;35163;48.878;18.040;2023-05-22T11:53:02;98183.41;;;27.82;36.48
49297;BME280;35163;48.878;18.040;2023-05-22T11:55:29;98185.56;;;27.86;37.38
49297;BME280;35163;48.878;18.040;2023-05-22T11:57:59;98180.91;;;27.88;38.73
49297;BME280;35163;48.878;18.040;2023-05-22T12:00:27;98182.22;;;27.93;38.84
49297;BME280;35163;48.878;18.040;2023-05-22T12:02:55;98179.41;;;27.94;37.47
49297;BME280;35163;48.878;18.040;2023-05-22T12:05:22;98179.41;;;27.94;37.31
49297;BME280;35163;48.878;18.040;2023-05-22T12:07:49;98180.25;;;27.95;37.50
49297;BME280;35163;48.878;18.040;2023-05-22T12:10:15;98176.56;;;27.96;37.44
49297;BME280;35163;48.878;18.040;2023-05-22T12:12:42;98168.13;;;28.00;37.06
49297;BME280;35163;48.878;18.040;2023-05-22T12:15:09;98165.94;;;28.04;37.57
49297;BME280;35163;48.878;18.040;2023-05-22T12:17:36;98155.31;;;28.04;39.08
49297;BME280;35163;48.878;18.040;2023-05-22T12:20:05;98163.63;;;28.01;39.95
49297;BME280;35163;48.878;18.040;2023-05-22T12:22:32;98171.59;;;28.01;40.51
49297;BME280;35163;48.878;18.040;2023-05-22T12:24:59;98170.63;;;28.02;39.70
49297;BME280;35163;48.878;18.040;2023-05-22T12:27:29;98173.91;;;28.04;40.72
49297;BME280;35163;48.878;18.040;2023-05-22T12:30:07;98181.56;;;28.07;39.46
49297;BME280;35163;48.878;18.040;2023-05-22T12:32:36;98180.91;;;28.05;39.76
49297;BME280;35163;48.878;18.040;2023-05-22T12:35:02;98174.06;;;28.11;39.02
49297;BME280;35163;48.878;18.040;2023-05-22T12:37:32;98172.56;;;28.17;39.19
49297;BME280;35163;48.878;18.040;2023-05-22T12:40:01;98162.59;;;28.27;39.16
49297;BME280;35163;48.878;18.040;2023-05-22T12:42:28;98161.91;;;28.33;38.26
49297;BME280;35163;48.878;18.040;2023-05-22T12:44:57;98154.94;;;28.41;38.11
49297;BME280;35163;48.878;18.040;2023-05-22T12:47:26;98148.31;;;28.45;37.42
49297;BME280;35163;48.878;18.040;2023-05-22T12:49:53;98155.59;;;28.51;38.34
49297;BME280;35163;48.878;18.040;2023-05-22T12:52:19;98155.25;;;28.54;37.47
49297;BME280;35163;48.878;18.040;2023-05-22T12:54:46;98154.88;;;28.57;38.65
49297;BME280;35163;48.878;18.040;2023-05-22T12:57:13;98145.59;;;28.61;38.08
49297;BME280;35163;48.878;18.040;2023-05-22T12:59:43;98148.72;;;28.65;37.48
49297;BME280;35163;48.878;18.040;2023-05-22T13:02:09;98142.56;;;28.65;37.22
49297;BME280;35163;48.878;18.040;2023-05-22T13:04:36;98153.69;;;28.68;37.54
49297;BME280;35163;48.878;18.040;2023-05-22T13:07:03;98149.22;;;28.69;37.92
49297;BME280;35163;48.878;18.040;2023-05-22T13:09:33;98140.22;;;28.70;38.51
49297;BME280;35163;48.878;18.040;2023-05-22T13:11:59;98135.56;;;28.72;39.61
49297;BME280;35163;48.878;18.040;2023-05-22T13:14:26;98134.91;;;28.70;39.13
49297;BME280;35163;48.878;18.040;2023-05-22T13:16:53;98130.06;;;28.73;39.18
49297;BME280;35163;48.878;18.040;2023-05-22T13:19:19;98139.88;;;28.73;38.72